sensor_id;sensor_type;location;lat;lon;timestamp;P1;durP1;ratioP1;P2;durP2;ratioP2
42884;SDS011;28534;48.100;11.584;2023-02-28T00:03:57;2.55;;;1.80;;
42884;SDS011;28534;48.100;11.584;2023-02-28T00:08:58;1.90;;;1.70;;
42884;SDS011;28534;48.100;11.584;2023-02-28T00:14:00;1.98;;;1.73;;
42884;SDS011;28534;48.100;11.584;2023-02-28T00:19:03;2.10;;;1.73;;
42884;SDS011;28534;48.100;11.584;2023-02-28T00:24:05;2.28;;;1.90;;
42884;SDS011;28534;48.100;11.584;2023-02-28T00:29:07;1.77;;;1.67;;
42884;SDS011;28534;48.100;11.584;2023-02-28T00:34:10;2.20;;;1.67;;
42884;SDS011;28534;48.100;11.584;2023-02-28T00:39:12;1.88;;;1.65;;
42884;SDS011;28534;48.100;11.584;2023-02-28T00:44:14;2.08;;;1.80;;
42884;SDS011;28534;48.100;11.584;2023-02-28T00:49:17;1.90;;;1.70;;
42884;SDS011;28534;48.100;11.584;2023-02-28T00:54:19;1.92;;;1.60;;
42884;SDS011;28534;48.100;11.584;2023-02-28T00:59:21;2.00;;;1.80;;
42884;SDS011;28534;48.100;11.584;2023-02-28T01:04:25;2.28;;;1.80;;
42884;SDS011;28534;48.100;11.584;2023-02-28T01:09:26;1.60;;;1.50;;
42884;SDS011;28534;48.100;11.584;2023-02-28T01:14:28;1.65;;;1.55;;
42884;SDS011;28534;48.100;11.584;2023-02-28T01:19:31;1.75;;;1.63;;
42884;SDS011;28534;48.100;11.584;2023-02-28T01:24:33;2.05;;;1.50;;
42884;SDS011;28534;48.100;11.584;2023-02-28T01:29:35;1.85;;;1.65;;
42884;SDS011;28534;48.100;11.584;2023-02-28T01:34:38;1.95;;;1.50;;
42884;SDS011;28534;48.100;11.584;2023-02-28T01:39:40;2.05;;;1.60;;
42884;SDS011;28534;48.100;11.584;2023-02-28T01:44:57;1.90;;;1.60;;
42884;SDS011;28534;48.100;11.584;2023-02-28T01:50:04;1.88;;;1.55;;
42884;SDS011;28534;48.100;11.584;2023-02-28T01:55:10;1.80;;;1.60;;
42884;SDS011;28534;48.100;11.584;2023-02-28T02:00:14;2.13;;;1.70;;
42884;SDS011;28534;48.100;11.584;2023-02-28T02:05:20;1.60;;;1.50;;
42884;SDS011;28534;48.100;11.584;2023-02-28T02:10:25;1.80;;;1.60;;
42884;SDS011;28534;48.100;11.584;2023-02-28T02:15:32;2.15;;;1.60;;
42884;SDS011;28534;48.100;11.584;2023-02-28T02:20:51;1.95;;;1.60;;
42884;SDS011;28534;48.100;11.584;2023-02-28T02:26:18;1.80;;;1.40;;
42884;SDS011;28534;48.100;11.584;2023-02-28T02:37:04;1.95;;;1.50;;
42884;SDS011;28534;48.100;11.584;2023-02-28T02:42:13;1.98;;;1.50;;
42884;SDS011;28534;48.100;11.584;2023-02-28T02:47:19;2.00;;;1.48;;
42884;SDS011;28534;48.100;11.584;2023-02-28T02:52:27;1.85;;;1.48;;
42884;SDS011;28534;48.100;11.584;2023-02-28T02:57:35;1.55;;;1.40;;
42884;SDS011;28534;48.100;11.584;2023-02-28T03:02:41;1.50;;;1.40;;
42884;SDS011;28534;48.100;11.584;2023-02-28T03:07:47;1.40;;;1.30;;
42884;SDS011;28534;48.100;11.584;2023-02-28T03:12:49;1.65;;;1.55;;
42884;SDS011;28534;48.100;11.584;2023-02-28T03:18:01;1.40;;;1.30;;
42884;SDS011;28534;48.100;11.584;2023-02-28T03:23:13;1.60;;;1.50;;
42884;SDS011;28534;48.100;11.584;2023-02-28T03:28:19;1.45;;;1.35;;
42884;SDS011;28534;48.100;11.584;2023-02-28T03:33:30;1.55;;;1.45;;
42884;SDS011;28534;48.100;11.584;2023-02-28T03:38:38;1.50;;;1.40;;
42884;SDS011;28534;48.100;11.584;2023-02-28T03:43:44;1.50;;;1.40;;
42884;SDS011;28534;48.100;11.584;2023-02-28T03:48:51;1.30;;;1.20;;
42884;SDS011;28534;48.100;11.584;2023-02-28T03:53:58;1.30;;;1.20;;
42884;SDS011;28534;48.100;11.584;2023-02-28T03:59:06;1.50;;;1.40;;
42884;SDS011;28534;48.100;11.584;2023-02-28T04:04:11;1.40;;;1.17;;
42884;SDS011;28534;48.100;11.584;2023-02-28T04:09:16;1.55;;;1.38;;
42884;SDS011;28534;48.100;11.584;2023-02-28T04:14:18;1.35;;;1.20;;
42884;SDS011;28534;48.100;11.584;2023-02-28T04:19:20;1.38;;;1.02;;
42884;SDS011;28534;48.100;11.584;2023-02-28T04:24:24;2.03;;;1.30;;
42884;SDS011;28534;48.100;11.584;2023-02-28T04:29:28;2.58;;;1.40;;
42884;SDS011;28534;48.100;11.584;2023-02-28T04:34:31;1.35;;;1.10;;
42884;SDS011;28534;48.100;11.584;2023-02-28T04:39:36;2.25;;;1.30;;
42884;SDS011;28534;48.100;11.584;2023-02-28T04:44:38;2.10;;;1.30;;
42884;SDS011;28534;48.100;11.584;2023-02-28T04:49:40;1.80;;;1.20;;
42884;SDS011;28534;48.100;11.584;2023-02-28T04:54:43;1.98;;;1.10;;
42884;SDS011;28534;48.100;11.584;2023-02-28T04:59:45;1.65;;;1.30;;
42884;SDS011;28534;48.100;11.584;2023-02-28T05:04:47;2.95;;;1.50;;
42884;SDS011;28534;48.100;11.584;2023-02-28T05:09:50;2.78;;;1.30;;
42884;SDS011;28534;48.100;11.584;2023-02-28T05:14:53;1.88;;;1.40;;
42884;SDS011;28534;48.100;11.584;2023-02-28T05:19:55;5.60;;;1.67;;
42884;SDS011;28534;48.100;11.584;2023-02-28T05:24:58;8.00;;;1.63;;
42884;SDS011;28534;48.100;11.584;2023-02-28T05:29:59;9.52;;;2.60;;
42884;SDS011;28534;48.100;11.584;2023-02-28T05:35:03;11.40;;;2.50;;
42884;SDS011;28534;48.100;11.584;2023-02-28T05:40:08;12.93;;;2.38;;
42884;SDS011;28534;48.100;11.584;2023-02-28T05:45:11;15.15;;;2.53;;
42884;SDS011;28534;48.100;11.584;2023-02-28T05:50:13;16.33;;;3.13;;
42884;SDS011;28534;48.100;11.584;2023-02-28T05:55:16;11.90;;;3.72;;
42884;SDS011;28534;48.100;11.584;2023-02-28T06:00:18;12.90;;;3.10;;
42884;SDS011;28534;48.100;11.584;2023-02-28T06:05:20;12.48;;;3.30;;
42884;SDS011;28534;48.100;11.584;2023-02-28T06:10:24;12.25;;;3.10;;
42884;SDS011;28534;48.100;11.584;2023-02-28T06:15:26;13.52;;;3.70;;
42884;SDS011;28534;48.100;11.584;2023-02-28T06:20:27;9.27;;;3.50;;
42884;SDS011;28534;48.100;11.584;2023-02-28T06:25:31;7.43;;;3.15;;
42884;SDS011;28534;48.100;11.584;2023-02-28T06:30:32;9.88;;;3.33;;
42884;SDS011;28534;48.100;11.584;2023-02-28T06:35:34;7.43;;;3.08;;
42884;SDS011;28534;48.100;11.584;2023-02-28T06:40:37;10.82;;;3.30;;
42884;SDS011;28534;48.100;11.584;2023-02-28T06:45:41;10.82;;;3.42;;
42884;SDS011;28534;48.100;11.584;2023-02-28T06:50:43;11.63;;;3.72;;
42884;SDS011;28534;48.100;11.584;2023-02-28T06:55:46;10.52;;;4.68;;
42884;SDS011;28534;48.100;11.584;2023-02-28T07:00:50;10.35;;;3.45;;
42884;SDS011;28534;48.100;11.584;2023-02-28T07:05:52;12.88;;;3.70;;
42884;SDS011;28534;48.100;11.584;2023-02-28T07:10:57;10.45;;;3.45;;
42884;SDS011;28534;48.100;11.584;2023-02-28T07:16:00;12.10;;;3.40;;
42884;SDS011;28534;48.100;11.584;2023-02-28T07:21:04;5.05;;;3.20;;
42884;SDS011;28534;48.100;11.584;2023-02-28T07:26:10;13.40;;;4.00;;
42884;SDS011;28534;48.100;11.584;2023-02-28T07:31:14;7.40;;;3.25;;
42884;SDS011;28534;48.100;11.584;2023-02-28T07:36:18;8.27;;;3.20;;
42884;SDS011;28534;48.100;11.584;2023-02-28T07:41:21;11.63;;;3.08;;
42884;SDS011;28534;48.100;11.584;2023-02-28T07:46:27;11.60;;;3.05;;
42884;SDS011;28534;48.100;11.584;2023-02-28T07:51:35;8.73;;;3.00;;
42884;SDS011;28534;48.100;11.584;2023-02-28T07:56:38;7.82;;;3.05;;
42884;SDS011;28534;48.100;11.584;2023-02-28T08:01:39;5.75;;;2.90;;
42884;SDS011;28534;48.100;11.584;2023-02-28T08:06:41;7.22;;;2.92;;
42884;SDS011;28534;48.100;11.584;2023-02-28T08:11:44;6.18;;;2.90;;
42884;SDS011;28534;48.100;11.584;2023-02-28T08:16:46;5.68;;;2.90;;
42884;SDS011;28534;48.100;11.584;2023-02-28T08:21:48;7.13;;;2.63;;
42884;SDS011;28534;48.100;11.584;2023-02-28T08:26:51;4.72;;;2.67;;
42884;SDS011;28534;48.100;11.584;2023-02-28T08:31:53;11.32;;;3.05;;
42884;SDS011;28534;48.100;11.584;2023-02-28T08:36:55;7.20;;;3.33;;
42884;SDS011;28534;48.100;11.584;2023-02-28T08:41:58;6.68;;;2.80;;
42884;SDS011;28534;48.100;11.584;2023-02-28T08:46:59;7.15;;;2.80;;
42884;SDS011;28534;48.100;11.584;2023-02-28T08:52:01;7.90;;;2.95;;
42884;SDS011;28534;48.100;11.584;2023-02-28T08:57:04;7.38;;;2.65;;
42884;SDS011;28534;48.100;11.584;2023-02-28T09:02:08;7.75;;;3.10;;
42884;SDS011;28534;48.100;11.584;2023-02-28T09:07:10;5.50;;;2.78;;
42884;SDS011;28534;48.100;11.584;2023-02-28T09:12:13;6.18;;;2.95;;
42884;SDS011;28534;48.100;11.584;2023-02-28T09:17:15;8.93;;;3.30;;
42884;SDS011;28534;48.100;11.584;2023-02-28T09:22:17;6.70;;;3.10;;
42884;SDS011;28534;48.100;11.584;2023-02-28T09:27:20;4.85;;;3.08;;
42884;SDS011;28534;48.100;11.584;2023-02-28T09:32:22;7.28;;;3.22;;
42884;SDS011;28534;48.100;11.584;2023-02-28T09:37:23;7.07;;;3.53;;
42884;SDS011;28534;48.100;11.584;2023-02-28T09:42:32;7.57;;;3.67;;
42884;SDS011;28534;48.100;11.584;2023-02-28T09:47:36;6.63;;;3.65;;
42884;SDS011;28534;48.100;11.584;2023-02-28T09:52:43;6.07;;;3.55;;
42884;SDS011;28534;48.100;11.584;2023-02-28T09:57:50;9.98;;;3.60;;
42884;SDS011;28534;48.100;11.584;2023-02-28T10:08:27;7.22;;;3.33;;
42884;SDS011;28534;48.100;11.584;2023-02-28T10:13:34;5.78;;;3.20;;
42884;SDS011;28534;48.100;11.584;2023-02-28T10:18:41;7.35;;;3.38;;
42884;SDS011;28534;48.100;11.584;2023-02-28T10:23:47;7.32;;;3.28;;
42884;SDS011;28534;48.100;11.584;2023-02-28T10:28:52;5.80;;;3.17;;
42884;SDS011;28534;48.100;11.584;2023-02-28T10:33:54;6.40;;;3.38;;
42884;SDS011;28534;48.100;11.584;2023-02-28T10:38:56;7.07;;;3.17;;
42884;SDS011;28534;48.100;11.584;2023-02-28T10:44:14;5.68;;;3.03;;
42884;SDS011;28534;48.100;11.584;2023-02-28T10:49:20;5.65;;;2.95;;
42884;SDS011;28534;48.100;11.584;2023-02-28T10:54:24;6.28;;;3.05;;
42884;SDS011;28534;48.100;11.584;2023-02-28T10:59:32;4.72;;;2.95;;
42884;SDS011;28534;48.100;11.584;2023-02-28T11:04:35;6.53;;;3.25;;
42884;SDS011;28534;48.100;11.584;2023-02-28T11:09:39;6.60;;;3.15;;
42884;SDS011;28534;48.100;11.584;2023-02-28T11:14:48;4.10;;;2.72;;
42884;SDS011;28534;48.100;11.584;2023-02-28T11:19:53;7.35;;;2.95;;
42884;SDS011;28534;48.100;11.584;2023-02-28T11:24:59;5.05;;;3.28;;
42884;SDS011;28534;48.100;11.584;2023-02-28T11:30:04;4.93;;;2.85;;
42884;SDS011;28534;48.100;11.584;2023-02-28T11:35:30;7.35;;;3.17;;
42884;SDS011;28534;48.100;11.584;2023-02-28T11:40:38;6.78;;;3.05;;
42884;SDS011;28534;48.100;11.584;2023-02-28T11:45:49;4.45;;;3.25;;
42884;SDS011;28534;48.100;11.584;2023-02-28T11:51:08;4.43;;;3.03;;
42884;SDS011;28534;48.100;11.584;2023-02-28T11:56:17;4.60;;;2.90;;
42884;SDS011;28534;48.100;11.584;2023-02-28T12:01:28;4.45;;;2.78;;
42884;SDS011;28534;48.100;11.584;2023-02-28T12:06:40;5.20;;;3.00;;
42884;SDS011;28534;48.100;11.584;2023-02-28T12:11:51;3.78;;;2.70;;
42884;SDS011;28534;48.100;11.584;2023-02-28T12:17:00;4.93;;;3.03;;
42884;SDS011;28534;48.100;11.584;2023-02-28T12:22:13;6.10;;;3.00;;
42884;SDS011;28534;48.100;11.584;2023-02-28T12:27:29;15.77;;;12.43;;
42884;SDS011;28534;48.100;11.584;2023-02-28T12:32:35;15.85;;;14.00;;
42884;SDS011;28534;48.100;11.584;2023-02-28T12:37:41;12.45;;;11.05;;
42884;SDS011;28534;48.100;11.584;2023-02-28T12:42:48;9.85;;;8.40;;
42884;SDS011;28534;48.100;11.584;2023-02-28T12:47:55;10.10;;;8.57;;
42884;SDS011;28534;48.100;11.584;2023-02-28T12:53:02;9.98;;;7.72;;
42884;SDS011;28534;48.100;11.584;2023-02-28T12:58:09;8.75;;;7.55;;
42884;SDS011;28534;48.100;11.584;2023-02-28T13:03:27;7.68;;;6.88;;
42884;SDS011;28534;48.100;11.584;2023-02-28T13:14:19;7.25;;;6.55;;
42884;SDS011;28534;48.100;11.584;2023-02-28T13:19:26;6.47;;;5.80;;
42884;SDS011;28534;48.100;11.584;2023-02-28T13:24:38;6.60;;;5.90;;
42884;SDS011;28534;48.100;11.584;2023-02-28T13:29:44;5.80;;;5.20;;
42884;SDS011;28534;48.100;11.584;2023-02-28T13:35:11;5.90;;;5.30;;
42884;SDS011;28534;48.100;11.584;2023-02-28T13:40:31;5.55;;;4.97;;
42884;SDS011;28534;48.100;11.584;2023-02-28T13:45:37;5.75;;;5.15;;
42884;SDS011;28534;48.100;11.584;2023-02-28T13:50:41;5.38;;;4.82;;
42884;SDS011;28534;48.100;11.584;2023-02-28T13:55:44;5.55;;;5.05;;
42884;SDS011;28534;48.100;11.584;2023-02-28T14:00:58;5.75;;;5.10;;
42884;SDS011;28534;48.100;11.584;2023-02-28T14:06:14;5.63;;;5.03;;
42884;SDS011;28534;48.100;11.584;2023-02-28T14:11:25;5.00;;;4.50;;
42884;SDS011;28534;48.100;11.584;2023-02-28T14:16:35;5.28;;;4.78;;
42884;SDS011;28534;48.100;11.584;2023-02-28T14:21:46;5.57;;;4.55;;
42884;SDS011;28534;48.100;11.584;2023-02-28T14:32:25;11.02;;;5.18;;
42884;SDS011;28534;48.100;11.584;2023-02-28T14:37:36;11.18;;;4.97;;
42884;SDS011;28534;48.100;11.584;2023-02-28T14:42:45;13.20;;;5.45;;
42884;SDS011;28534;48.100;11.584;2023-02-28T14:47:48;17.52;;;5.82;;
42884;SDS011;28534;48.100;11.584;2023-02-28T14:52:53;13.50;;;4.97;;
42884;SDS011;28534;48.100;11.584;2023-02-28T14:57:56;14.13;;;5.40;;
42884;SDS011;28534;48.100;11.584;2023-02-28T15:03:00;11.63;;;5.28;;
42884;SDS011;28534;48.100;11.584;2023-02-28T15:08:19;14.65;;;5.07;;
42884;SDS011;28534;48.100;11.584;2023-02-28T15:13:21;12.38;;;5.13;;
42884;SDS011;28534;48.100;11.584;2023-02-28T15:18:25;16.00;;;5.03;;
42884;SDS011;28534;48.100;11.584;2023-02-28T15:23:33;9.68;;;4.78;;
42884;SDS011;28534;48.100;11.584;2023-02-28T15:28:37;12.02;;;4.90;;
42884;SDS011;28534;48.100;11.584;2023-02-28T15:33:39;13.23;;;4.95;;
42884;SDS011;28534;48.100;11.584;2023-02-28T15:38:54;10.82;;;4.85;;
42884;SDS011;28534;48.100;11.584;2023-02-28T15:44:16;11.10;;;4.72;;
42884;SDS011;28534;48.100;11.584;2023-02-28T15:49:26;12.20;;;4.85;;
42884;SDS011;28534;48.100;11.584;2023-02-28T15:54:32;7.85;;;4.72;;
42884;SDS011;28534;48.100;11.584;2023-02-28T15:59:36;10.20;;;4.82;;
42884;SDS011;28534;48.100;11.584;2023-02-28T16:09:57;9.68;;;4.53;;
42884;SDS011;28534;48.100;11.584;2023-02-28T16:14:59;12.18;;;4.80;;
42884;SDS011;28534;48.100;11.584;2023-02-28T16:20:06;15.68;;;5.00;;
42884;SDS011;28534;48.100;11.584;2023-02-28T16:25:16;17.35;;;4.90;;
42884;SDS011;28534;48.100;11.584;2023-02-28T16:30:20;14.13;;;5.25;;
42884;SDS011;28534;48.100;11.584;2023-02-28T16:35:24;12.32;;;4.55;;
42884;SDS011;28534;48.100;11.584;2023-02-28T16:40:27;11.55;;;4.80;;
42884;SDS011;28534;48.100;11.584;2023-02-28T16:45:34;15.82;;;5.32;;
42884;SDS011;28534;48.100;11.584;2023-02-28T16:50:35;13.18;;;4.72;;
42884;SDS011;28534;48.100;11.584;2023-02-28T16:55:38;18.52;;;4.97;;
42884;SDS011;28534;48.100;11.584;2023-02-28T17:00:40;13.52;;;5.25;;
42884;SDS011;28534;48.100;11.584;2023-02-28T17:05:43;18.23;;;5.13;;
42884;SDS011;28534;48.100;11.584;2023-02-28T17:10:47;12.75;;;5.20;;
42884;SDS011;28534;48.100;11.584;2023-02-28T17:15:48;17.23;;;5.32;;
42884;SDS011;28534;48.100;11.584;2023-02-28T17:20:50;12.40;;;4.78;;
42884;SDS011;28534;48.100;11.584;2023-02-28T17:25:53;14.23;;;4.88;;
42884;SDS011;28534;48.100;11.584;2023-02-28T17:30:55;13.52;;;4.78;;
42884;SDS011;28534;48.100;11.584;2023-02-28T17:35:57;14.98;;;11.32;;
42884;SDS011;28534;48.100;11.584;2023-02-28T17:41:00;11.70;;;9.52;;
42884;SDS011;28534;48.100;11.584;2023-02-28T17:46:02;14.50;;;7.90;;
42884;SDS011;28534;48.100;11.584;2023-02-28T17:51:05;13.98;;;7.28;;
42884;SDS011;28534;48.100;11.584;2023-02-28T17:56:10;12.20;;;7.20;;
42884;SDS011;28534;48.100;11.584;2023-02-28T18:01:14;11.80;;;7.35;;
42884;SDS011;28534;48.100;11.584;2023-02-28T18:06:18;12.90;;;7.00;;
42884;SDS011;28534;48.100;11.584;2023-02-28T18:11:23;12.90;;;6.63;;
42884;SDS011;28534;48.100;11.584;2023-02-28T18:16:26;10.10;;;6.60;;
42884;SDS011;28534;48.100;11.584;2023-02-28T18:21:27;9.82;;;6.10;;
42884;SDS011;28534;48.100;11.584;2023-02-28T18:26:31;16.38;;;5.95;;
42884;SDS011;28534;48.100;11.584;2023-02-28T18:31:32;9.82;;;5.82;;
42884;SDS011;28534;48.100;11.584;2023-02-28T18:36:34;10.57;;;5.88;;
42884;SDS011;28534;48.100;11.584;2023-02-28T18:41:47;9.32;;;5.78;;
42884;SDS011;28534;48.100;11.584;2023-02-28T18:46:49;9.93;;;6.03;;
42884;SDS011;28534;48.100;11.584;2023-02-28T18:51:50;9.50;;;5.60;;
42884;SDS011;28534;48.100;11.584;2023-02-28T18:56:54;8.88;;;5.70;;
42884;SDS011;28534;48.100;11.584;2023-02-28T19:01:55;8.75;;;5.50;;
42884;SDS011;28534;48.100;11.584;2023-02-28T19:06:58;7.47;;;5.32;;
42884;SDS011;28534;48.100;11.584;2023-02-28T19:12:01;7.40;;;5.32;;
42884;SDS011;28534;48.100;11.584;2023-02-28T19:17:03;9.82;;;5.38;;
42884;SDS011;28534;48.100;11.584;2023-02-28T19:22:04;7.22;;;5.00;;
42884;SDS011;28534;48.100;11.584;2023-02-28T19:27:07;9.50;;;5.20;;
42884;SDS011;28534;48.100;11.584;2023-02-28T19:32:09;7.65;;;5.07;;
42884;SDS011;28534;48.100;11.584;2023-02-28T19:37:12;7.72;;;4.88;;
42884;SDS011;28534;48.100;11.584;2023-02-28T19:42:16;7.47;;;4.88;;
42884;SDS011;28534;48.100;11.584;2023-02-28T19:47:19;8.05;;;5.00;;
42884;SDS011;28534;48.100;11.584;2023-02-28T19:52:20;5.93;;;4.60;;
42884;SDS011;28534;48.100;11.584;2023-02-28T19:57:24;7.68;;;4.45;;
42884;SDS011;28534;48.100;11.584;2023-02-28T20:02:26;6.22;;;4.57;;
42884;SDS011;28534;48.100;11.584;2023-02-28T20:07:28;6.88;;;4.78;;
42884;SDS011;28534;48.100;11.584;2023-02-28T20:12:33;8.38;;;5.30;;
42884;SDS011;28534;48.100;11.584;2023-02-28T20:17:34;5.90;;;4.38;;
42884;SDS011;28534;48.100;11.584;2023-02-28T20:22:36;6.60;;;4.60;;
42884;SDS011;28534;48.100;11.584;2023-02-28T20:27:39;6.60;;;4.60;;
42884;SDS011;28534;48.100;11.584;2023-02-28T20:32:41;5.20;;;4.18;;
42884;SDS011;28534;48.100;11.584;2023-02-28T20:37:43;5.82;;;4.63;;
42884;SDS011;28534;48.100;11.584;2023-02-28T20:42:46;6.97;;;4.70;;
42884;SDS011;28534;48.100;11.584;2023-02-28T20:47:47;5.07;;;4.40;;
42884;SDS011;28534;48.100;11.584;2023-02-28T20:52:50;6.10;;;4.60;;
42884;SDS011;28534;48.100;11.584;2023-02-28T20:57:53;5.10;;;4.40;;
42884;SDS011;28534;48.100;11.584;2023-02-28T21:02:56;6.15;;;4.93;;
42884;SDS011;28534;48.100;11.584;2023-02-28T21:07:57;6.75;;;4.25;;
42884;SDS011;28534;48.100;11.584;2023-02-28T21:13:00;5.55;;;4.53;;
42884;SDS011;28534;48.100;11.584;2023-02-28T21:18:02;6.40;;;3.97;;
42884;SDS011;28534;48.100;11.584;2023-02-28T21:23:04;5.97;;;4.45;;
42884;SDS011;28534;48.100;11.584;2023-02-28T21:28:07;6.15;;;4.25;;
42884;SDS011;28534;48.100;11.584;2023-02-28T21:33:09;5.50;;;4.03;;
42884;SDS011;28534;48.100;11.584;2023-02-28T21:38:11;6.55;;;4.38;;
42884;SDS011;28534;48.100;11.584;2023-02-28T21:43:14;4.32;;;3.90;;
42884;SDS011;28534;48.100;11.584;2023-02-28T21:48:16;5.15;;;3.80;;
42884;SDS011;28534;48.100;11.584;2023-02-28T21:53:17;7.38;;;4.50;;
42884;SDS011;28534;48.100;11.584;2023-02-28T21:58:20;4.57;;;4.15;;
42884;SDS011;28534;48.100;11.584;2023-02-28T22:03:22;4.57;;;3.88;;
42884;SDS011;28534;48.100;11.584;2023-02-28T22:08:24;5.20;;;3.72;;
42884;SDS011;28534;48.100;11.584;2023-02-28T22:13:27;4.35;;;3.80;;
42884;SDS011;28534;48.100;11.584;2023-02-28T22:18:29;5.22;;;4.00;;
42884;SDS011;28534;48.100;11.584;2023-02-28T22:23:31;4.75;;;3.78;;
42884;SDS011;28534;48.100;11.584;2023-02-28T22:28:34;4.40;;;3.97;;
42884;SDS011;28534;48.100;11.584;2023-02-28T22:33:37;4.35;;;3.60;;
42884;SDS011;28534;48.100;11.584;2023-02-28T22:38:39;4.93;;;3.60;;
42884;SDS011;28534;48.100;11.584;2023-02-28T22:43:42;4.15;;;3.75;;
42884;SDS011;28534;48.100;11.584;2023-02-28T22:48:44;4.20;;;3.80;;
42884;SDS011;28534;48.100;11.584;2023-02-28T22:53:48;4.10;;;3.70;;
42884;SDS011;28534;48.100;11.584;2023-02-28T22:58:52;4.57;;;3.88;;
42884;SDS011;28534;48.100;11.584;2023-02-28T23:03:54;4.88;;;4.05;;
42884;SDS011;28534;48.100;11.584;2023-02-28T23:08:57;4.07;;;3.60;;
42884;SDS011;28534;48.100;11.584;2023-02-28T23:14:02;4.20;;;3.78;;
42884;SDS011;28534;48.100;11.584;2023-02-28T23:19:05;4.70;;;3.70;;
42884;SDS011;28534;48.100;11.584;2023-02-28T23:24:09;4.22;;;3.58;;
42884;SDS011;28534;48.100;11.584;2023-02-28T23:29:13;4.10;;;3.70;;
42884;SDS011;28534;48.100;11.584;2023-02-28T23:34:16;3.63;;;3.33;;
42884;SDS011;28534;48.100;11.584;2023-02-28T23:39:25;5.15;;;3.80;;
42884;SDS011;28534;48.100;11.584;2023-02-28T23:44:30;3.83;;;3.42;;
42884;SDS011;28534;48.100;11.584;2023-02-28T23:49:32;4.43;;;3.47;;
42884;SDS011;28534;48.100;11.584;2023-02-28T23:54:33;4.07;;;3.38;;
42884;SDS011;28534;48.100;11.584;2023-02-28T23:59:37;4.22;;;3.42;;
